createdAt,value
2023-03-23T16:00:44.232Z,99321.00
2023-03-23T16:05:47.532Z,99325.80
2023-03-23T16:10:51.150Z,99319.80
2023-03-23T16:15:54.345Z,99324.20
2023-03-23T16:20:58.484Z,99329.40
2023-03-23T16:26:01.907Z,99334.80
2023-03-23T16:31:05.946Z,99327.20
2023-03-23T16:36:13.517Z,99331.00
2023-03-23T16:41:16.854Z,99338.80
2023-03-23T16:46:20.006Z,99355.20
2023-03-23T16:51:23.457Z,99350.40
2023-03-23T16:56:26.820Z,99358.80
2023-03-23T17:01:30.105Z,99364.80
2023-03-23T17:06:33.595Z,99354.00
2023-03-23T17:11:37.038Z,99345.00
2023-03-23T17:16:40.690Z,99350.60
2023-03-23T17:21:44.350Z,99349.60
2023-03-23T17:26:47.451Z,99364.20
2023-03-23T17:31:52.166Z,99371.20
2023-03-23T17:36:55.504Z,99373.40
2023-03-23T17:42:01.189Z,99364.40
2023-03-23T17:47:05.180Z,99375.80
2023-03-23T17:52:08.423Z,99371.40
2023-03-23T17:57:12.367Z,99354.40
2023-03-23T18:02:16.391Z,99361.80
2023-03-23T18:07:23.771Z,99375.40
2023-03-23T18:12:27.637Z,99375.40
2023-03-23T18:17:31.225Z,99366.80
2023-03-23T18:22:35.236Z,99375.00
2023-03-23T18:27:38.373Z,99380.00
2023-03-23T18:32:42.659Z,99384.40
2023-03-23T18:37:48.082Z,99388.40
2023-03-23T18:42:51.369Z,99379.00
2023-03-23T18:47:54.707Z,99386.00
2023-03-23T18:52:58.179Z,99372.60
2023-03-23T18:58:02.920Z,99375.80
2023-03-23T19:03:07.020Z,99378.00
2023-03-23T19:08:10.610Z,99391.40
2023-03-23T19:13:13.892Z,99387.20
2023-03-23T19:18:16.996Z,99381.40
2023-03-23T19:23:22.495Z,99393.00
2023-03-23T19:33:32.872Z,99384.80
2023-03-23T19:38:36.183Z,99396.00
2023-03-23T19:43:39.817Z,99414.40
2023-03-23T19:48:46.121Z,99419.60
2023-03-23T19:53:51.129Z,99427.40
2023-03-23T19:58:54.438Z,99436.20
2023-03-23T20:04:00.023Z,99433.00
2023-03-23T20:09:05.820Z,99427.60
2023-03-23T20:14:09.128Z,99439.80
2023-03-23T20:19:12.384Z,99470.60
2023-03-23T20:24:16.120Z,99473.80
2023-03-23T20:29:19.240Z,99476.20
2023-03-23T20:34:31.356Z,99488.40
2023-03-23T20:39:34.886Z,99485.60
2023-03-23T20:44:39.704Z,99499.00
2023-03-23T20:49:42.810Z,99503.20
2023-03-23T20:54:56.866Z,99510.20
2023-03-23T21:00:00.384Z,99506.40
2023-03-23T21:05:04.626Z,99517.40
2023-03-23T21:10:07.752Z,99516.60
2023-03-23T21:15:11.748Z,99508.60
2023-03-23T21:20:14.922Z,99513.00
2023-03-23T21:25:18.270Z,99509.60
2023-03-23T21:30:23.012Z,99500.80
2023-03-23T21:35:26.548Z,99516.20
2023-03-23T21:40:29.631Z,99538.40
2023-03-23T21:45:33.769Z,99532.00
2023-03-23T21:50:44.273Z,99529.00
2023-03-23T21:55:51.838Z,99521.00
2023-03-23T22:00:55.966Z,99536.80
2023-03-23T22:06:16.299Z,99532.20
2023-03-23T22:11:24.241Z,99504.20
2023-03-23T22:16:28.158Z,99500.20
2023-03-23T22:21:32.068Z,99491.20
2023-03-23T22:26:35.577Z,99495.60
2023-03-23T22:31:40.120Z,99482.40
2023-03-23T22:36:43.439Z,99490.40
2023-03-23T22:41:46.585Z,99502.80
2023-03-23T22:46:50.057Z,99505.80
2023-03-23T22:51:53.367Z,99516.80
2023-03-23T22:56:56.714Z,99517.00
2023-03-23T23:01:59.924Z,99514.60
2023-03-23T23:07:12.515Z,99513.40
2023-03-23T23:12:17.362Z,99501.40
2023-03-23T23:17:20.479Z,99496.80
2023-03-23T23:22:23.679Z,99500.40
2023-03-23T23:27:26.894Z,99495.80
2023-03-23T23:32:32.402Z,99496.40
2023-03-23T23:37:35.558Z,99507.00
2023-03-23T23:42:38.671Z,99499.60
2023-03-23T23:47:43.045Z,99499.00
2023-03-23T23:52:46.864Z,99504.00
2023-03-23T23:57:50.120Z,99506.60
